sensor_id;sensor_type;location;lat;lon;timestamp;pressure;altitude;pressure_sealevel;temperature;humidity
9690;BME280;4884;42.614;23.340;2024-02-04T00:01:25;93047.03;;;5.77;64.37
9690;BME280;4884;42.614;23.340;2024-02-04T00:03:50;93079.81;;;5.90;64.77
9690;BME280;4884;42.614;23.340;2024-02-04T00:06:16;93045.88;;;5.70;64.82
9690;BME280;4884;42.614;23.340;2024-02-04T00:08:41;93076.81;;;5.83;65.20
9690;BME280;4884;42.614;23.340;2024-02-04T00:11:07;92930.75;;;5.11;64.24
9690;BME280;4884;42.614;23.340;2024-02-04T00:13:35;92939.03;;;4.89;64.31
9690;BME280;4884;42.614;23.340;2024-02-04T00:16:00;93055.00;;;5.62;65.46
9690;BME280;4884;42.614;23.340;2024-02-04T00:18:26;92882.78;;;4.50;65.44
9690;BME280;4884;42.614;23.340;2024-02-04T00:20:51;92922.25;;;4.78;65.37
9690;BME280;4884;42.614;23.340;2024-02-04T00:23:16;92923.97;;;4.83;65.51
9690;BME280;4884;42.614;23.340;2024-02-04T00:25:42;93073.91;;;5.71;65.89
9690;BME280;4884;42.614;23.340;2024-02-04T00:28:07;93051.03;;;5.83;64.48
9690;BME280;4884;42.614;23.340;2024-02-04T00:30:37;93032.53;;;5.68;65.58
9690;BME280;4884;42.614;23.340;2024-02-04T00:33:02;93033.69;;;5.75;65.34
9690;BME280;4884;42.614;23.340;2024-02-04T00:35:29;93055.50;;;5.96;64.66
9690;BME280;4884;42.614;23.340;2024-02-04T00:37:54;93029.72;;;5.96;63.29
9690;BME280;4884;42.614;23.340;2024-02-04T00:40:19;93036.06;;;6.04;63.67
9690;BME280;4884;42.614;23.340;2024-02-04T00:42:45;93051.81;;;6.02;64.71
9690;BME280;4884;42.614;23.340;2024-02-04T00:45:10;93045.19;;;5.96;64.96
9690;BME280;4884;42.614;23.340;2024-02-04T00:47:36;93064.09;;;6.05;64.07
9690;BME280;4884;42.614;23.340;2024-02-04T00:50:01;93058.03;;;6.15;64.22
9690;BME280;4884;42.614;23.340;2024-02-04T00:52:27;93032.72;;;6.03;65.42
9690;BME280;4884;42.614;23.340;2024-02-04T00:54:52;93019.28;;;6.07;64.84
9690;BME280;4884;42.614;23.340;2024-02-04T00:57:17;93028.97;;;6.10;64.81
9690;BME280;4884;42.614;23.340;2024-02-04T00:59:43;92976.34;;;5.83;65.35
9690;BME280;4884;42.614;23.340;2024-02-04T01:02:08;92912.50;;;5.40;66.89
9690;BME280;4884;42.614;23.340;2024-02-04T01:04:33;93060.81;;;6.32;66.51
9690;BME280;4884;42.614;23.340;2024-02-04T01:06:59;92934.19;;;5.52;66.95
9690;BME280;4884;42.614;23.340;2024-02-04T01:09:24;93063.38;;;6.46;67.07
9690;BME280;4884;42.614;23.340;2024-02-04T01:11:49;93053.91;;;6.28;67.45
9690;BME280;4884;42.614;23.340;2024-02-04T01:14:15;92885.53;;;5.23;66.65
9690;BME280;4884;42.614;23.340;2024-02-04T01:16:40;93048.88;;;6.36;65.49
9690;BME280;4884;42.614;23.340;2024-02-04T01:19:05;93061.47;;;6.38;66.63
9690;BME280;4884;42.614;23.340;2024-02-04T01:21:31;93063.78;;;6.39;67.29
9690;BME280;4884;42.614;23.340;2024-02-04T01:23:56;92899.38;;;5.41;67.71
9690;BME280;4884;42.614;23.340;2024-02-04T01:26:21;93036.75;;;6.37;67.48
9690;BME280;4884;42.614;23.340;2024-02-04T01:28:49;92916.53;;;5.59;66.85
9690;BME280;4884;42.614;23.340;2024-02-04T01:31:14;92988.72;;;6.00;67.57
9690;BME280;4884;42.614;23.340;2024-02-04T01:33:40;92840.41;;;4.99;67.83
9690;BME280;4884;42.614;23.340;2024-02-04T01:36:05;93035.31;;;6.44;67.41
9690;BME280;4884;42.614;23.340;2024-02-04T01:38:31;93010.00;;;6.19;67.71
9690;BME280;4884;42.614;23.340;2024-02-04T01:40:56;92928.19;;;5.70;67.06
9690;BME280;4884;42.614;23.340;2024-02-04T01:43:23;93035.50;;;6.48;66.66
9690;BME280;4884;42.614;23.340;2024-02-04T01:45:50;92904.91;;;5.62;67.13
9690;BME280;4884;42.614;23.340;2024-02-04T01:48:16;93043.97;;;6.62;67.30
9690;BME280;4884;42.614;23.340;2024-02-04T01:50:43;93030.13;;;6.85;65.88
9690;BME280;4884;42.614;23.340;2024-02-04T01:53:09;93006.63;;;6.73;65.55
9690;BME280;4884;42.614;23.340;2024-02-04T01:55:35;93016.00;;;6.69;66.25
9690;BME280;4884;42.614;23.340;2024-02-04T01:58:01;93028.31;;;6.72;66.21
9690;BME280;4884;42.614;23.340;2024-02-04T02:00:27;93013.16;;;6.57;66.40
9690;BME280;4884;42.614;23.340;2024-02-04T02:02:54;92978.63;;;6.44;66.29
9690;BME280;4884;42.614;23.340;2024-02-04T02:05:21;93028.97;;;6.91;65.07
9690;BME280;4884;42.614;23.340;2024-02-04T02:07:47;93015.38;;;6.99;64.13
9690;BME280;4884;42.614;23.340;2024-02-04T02:10:16;92985.66;;;6.66;65.17
9690;BME280;4884;42.614;23.340;2024-02-04T02:12:50;93026.38;;;6.91;65.33
9690;BME280;4884;42.614;23.340;2024-02-04T02:15:24;93020.38;;;6.82;65.43
9690;BME280;4884;42.614;23.340;2024-02-04T02:18:04;92935.84;;;6.30;65.59
9690;BME280;4884;42.614;23.340;2024-02-04T02:23:21;92995.00;;;6.62;65.83
9690;BME280;4884;42.614;23.340;2024-02-04T02:25:49;92873.84;;;5.99;65.65
9690;BME280;4884;42.614;23.340;2024-02-04T02:28:14;92971.50;;;6.63;65.62
9690;BME280;4884;42.614;23.340;2024-02-04T02:30:40;92996.91;;;6.70;65.33
9690;BME280;4884;42.614;23.340;2024-02-04T02:33:05;92879.19;;;6.02;65.38
9690;BME280;4884;42.614;23.340;2024-02-04T02:35:33;92985.59;;;6.79;65.14
9690;BME280;4884;42.614;23.340;2024-02-04T02:38:07;93009.97;;;6.87;65.01
9690;BME280;4884;42.614;23.340;2024-02-04T02:40:47;92871.94;;;6.04;64.68
9690;BME280;4884;42.614;23.340;2024-02-04T02:43:15;92868.69;;;6.13;63.60
9690;BME280;4884;42.614;23.340;2024-02-04T02:45:42;93005.03;;;6.99;63.92
9690;BME280;4884;42.614;23.340;2024-02-04T02:48:08;92996.41;;;7.17;62.01
9690;BME280;4884;42.614;23.340;2024-02-04T02:50:35;92847.50;;;6.16;62.75
9690;BME280;4884;42.614;23.340;2024-02-04T02:53:00;92981.47;;;7.14;61.78
9690;BME280;4884;42.614;23.340;2024-02-04T02:55:26;92884.44;;;6.47;62.06
9690;BME280;4884;42.614;23.340;2024-02-04T02:57:51;92937.13;;;6.68;61.86
9690;BME280;4884;42.614;23.340;2024-02-04T03:00:17;92857.56;;;6.39;61.23
9690;BME280;4884;42.614;23.340;2024-02-04T03:02:42;93008.59;;;7.47;60.08
9690;BME280;4884;42.614;23.340;2024-02-04T03:05:08;92900.69;;;7.05;59.00
9690;BME280;4884;42.614;23.340;2024-02-04T03:07:33;92992.13;;;7.57;60.20
9690;BME280;4884;42.614;23.340;2024-02-04T03:09:58;92971.69;;;7.47;59.27
9690;BME280;4884;42.614;23.340;2024-02-04T03:12:24;92998.97;;;7.62;60.03
9690;BME280;4884;42.614;23.340;2024-02-04T03:14:49;92963.41;;;7.36;60.55
9690;BME280;4884;42.614;23.340;2024-02-04T03:17:15;92991.13;;;7.44;61.21
9690;BME280;4884;42.614;23.340;2024-02-04T03:19:40;92991.69;;;7.64;60.44
9690;BME280;4884;42.614;23.340;2024-02-04T03:22:05;92967.94;;;7.53;61.41
9690;BME280;4884;42.614;23.340;2024-02-04T03:24:31;92994.03;;;7.51;61.60
9690;BME280;4884;42.614;23.340;2024-02-04T03:26:56;92968.94;;;7.43;62.14
9690;BME280;4884;42.614;23.340;2024-02-04T03:29:22;92840.00;;;6.86;61.03
9690;BME280;4884;42.614;23.340;2024-02-04T03:31:48;92982.28;;;7.68;61.05
9690;BME280;4884;42.614;23.340;2024-02-04T03:34:13;92963.34;;;7.50;62.09
9690;BME280;4884;42.614;23.340;2024-02-04T03:36:39;92989.13;;;7.64;62.63
9690;BME280;4884;42.614;23.340;2024-02-04T03:39:04;92997.22;;;7.71;62.42
9690;BME280;4884;42.614;23.340;2024-02-04T03:41:30;92850.00;;;6.65;63.34
9690;BME280;4884;42.614;23.340;2024-02-04T03:43:55;92853.06;;;6.67;63.93
9690;BME280;4884;42.614;23.340;2024-02-04T03:46:20;92850.38;;;6.72;63.41
9690;BME280;4884;42.614;23.340;2024-02-04T03:48:46;92947.69;;;7.46;63.52
9690;BME280;4884;42.614;23.340;2024-02-04T03:51:15;92919.78;;;7.26;64.08
9690;BME280;4884;42.614;23.340;2024-02-04T03:53:42;92928.47;;;7.30;64.20
9690;BME280;4884;42.614;23.340;2024-02-04T03:56:07;92954.38;;;7.47;64.19
9690;BME280;4884;42.614;23.340;2024-02-04T03:58:33;92935.69;;;6.98;64.49
9690;BME280;4884;42.614;23.340;2024-02-04T04:00:58;92955.41;;;7.16;65.84
9690;BME280;4884;42.614;23.340;2024-02-04T04:03:25;92960.78;;;7.28;65.71
9690;BME280;4884;42.614;23.340;2024-02-04T04:05:51;92979.97;;;7.13;65.84
9690;BME280;4884;42.614;23.340;2024-02-04T04:08:18;92862.88;;;6.43;66.70
9690;BME280;4884;42.614;23.340;2024-02-04T04:10:43;92870.69;;;6.51;66.04
9690;BME280;4884;42.614;23.340;2024-02-04T04:13:09;92996.50;;;7.12;66.73
9690;BME280;4884;42.614;23.340;2024-02-04T04:15:34;92853.41;;;6.16;67.50
9690;BME280;4884;42.614;23.340;2024-02-04T04:18:00;92974.28;;;7.03;68.04
9690;BME280;4884;42.614;23.340;2024-02-04T04:20:25;92811.06;;;6.09;67.21
9690;BME280;4884;42.614;23.340;2024-02-04T04:22:50;92844.69;;;6.26;67.28
9690;BME280;4884;42.614;23.340;2024-02-04T04:25:16;92951.94;;;6.98;68.09
9690;BME280;4884;42.614;23.340;2024-02-04T04:27:42;92936.03;;;7.27;66.22
9690;BME280;4884;42.614;23.340;2024-02-04T04:30:07;92716.31;;;5.70;67.40
9690;BME280;4884;42.614;23.340;2024-02-04T04:32:34;92943.03;;;7.57;66.21
9690;BME280;4884;42.614;23.340;2024-02-04T04:34:59;92889.34;;;6.93;66.50
9690;BME280;4884;42.614;23.340;2024-02-04T04:37:24;92934.03;;;7.02;67.00
9690;BME280;4884;42.614;23.340;2024-02-04T04:39:50;93010.84;;;7.18;68.67
9690;BME280;4884;42.614;23.340;2024-02-04T04:42:15;93001.81;;;7.29;68.39
9690;BME280;4884;42.614;23.340;2024-02-04T04:44:40;92976.25;;;7.06;69.21
9690;BME280;4884;42.614;23.340;2024-02-04T04:47:06;92861.44;;;6.50;68.37
9690;BME280;4884;42.614;23.340;2024-02-04T04:49:31;92870.81;;;6.46;68.47
9690;BME280;4884;42.614;23.340;2024-02-04T04:51:57;92961.84;;;7.05;68.29
9690;BME280;4884;42.614;23.340;2024-02-04T04:54:22;92819.66;;;6.40;67.03
9690;BME280;4884;42.614;23.340;2024-02-04T04:56:48;92954.47;;;7.12;66.35
9690;BME280;4884;42.614;23.340;2024-02-04T04:59:15;92876.09;;;6.63;66.51
9690;BME280;4884;42.614;23.340;2024-02-04T05:01:47;92867.63;;;6.49;66.51
9690;BME280;4884;42.614;23.340;2024-02-04T05:04:13;92977.44;;;7.22;65.83
9690;BME280;4884;42.614;23.340;2024-02-04T05:06:39;92943.78;;;7.05;66.20
9690;BME280;4884;42.614;23.340;2024-02-04T05:09:05;92829.81;;;6.23;66.40
9690;BME280;4884;42.614;23.340;2024-02-04T05:11:30;92962.81;;;6.95;66.41
9690;BME280;4884;42.614;23.340;2024-02-04T05:13:56;92976.09;;;7.02;66.47
9690;BME280;4884;42.614;23.340;2024-02-04T05:16:21;92847.25;;;6.39;65.79
9690;BME280;4884;42.614;23.340;2024-02-04T05:18:46;92811.28;;;6.21;65.98
9690;BME280;4884;42.614;23.340;2024-02-04T05:21:12;92962.00;;;7.08;65.87
9690;BME280;4884;42.614;23.340;2024-02-04T05:23:37;92840.94;;;6.32;65.94
9690;BME280;4884;42.614;23.340;2024-02-04T05:26:06;92958.91;;;6.98;65.56
9690;BME280;4884;42.614;23.340;2024-02-04T05:28:32;92973.28;;;7.34;64.22
9690;BME280;4884;42.614;23.340;2024-02-04T05:30:57;92957.50;;;7.36;64.04
9690;BME280;4884;42.614;23.340;2024-02-04T05:33:23;92981.13;;;7.51;63.70
9690;BME280;4884;42.614;23.340;2024-02-04T05:35:48;92952.28;;;7.27;63.82
9690;BME280;4884;42.614;23.340;2024-02-04T05:38:14;92983.38;;;7.44;63.43
9690;BME280;4884;42.614;23.340;2024-02-04T05:40:39;92985.25;;;7.52;63.13
9690;BME280;4884;42.614;23.340;2024-02-04T05:43:05;92983.91;;;7.33;63.80
9690;BME280;4884;42.614;23.340;2024-02-04T05:45:33;92938.09;;;7.16;63.66
9690;BME280;4884;42.614;23.340;2024-02-04T05:47:58;92966.47;;;7.38;63.11
9690;BME280;4884;42.614;23.340;2024-02-04T05:50:24;92969.66;;;7.35;64.27
9690;BME280;4884;42.614;23.340;2024-02-04T05:52:49;92967.53;;;7.15;64.14
9690;BME280;4884;42.614;23.340;2024-02-04T05:55:15;92928.59;;;7.03;63.85
9690;BME280;4884;42.614;23.340;2024-02-04T05:57:40;92973.53;;;7.24;64.77
9690;BME280;4884;42.614;23.340;2024-02-04T06:00:07;92878.25;;;6.48;65.08
9690;BME280;4884;42.614;23.340;2024-02-04T06:02:35;92987.84;;;7.30;64.53
9690;BME280;4884;42.614;23.340;2024-02-04T06:05:01;92993.41;;;7.46;64.10
9690;BME280;4884;42.614;23.340;2024-02-04T06:07:26;92943.06;;;7.13;64.27
9690;BME280;4884;42.614;23.340;2024-02-04T06:09:51;92918.13;;;6.86;64.86
9690;BME280;4884;42.614;23.340;2024-02-04T06:12:17;93014.88;;;7.33;64.26
9690;BME280;4884;42.614;23.340;2024-02-04T06:14:42;93004.41;;;7.29;64.88
9690;BME280;4884;42.614;23.340;2024-02-04T06:17:08;92885.97;;;6.48;64.43
9690;BME280;4884;42.614;23.340;2024-02-04T06:19:34;93019.66;;;7.39;64.59
9690;BME280;4884;42.614;23.340;2024-02-04T06:22:00;93019.59;;;7.31;64.59
9690;BME280;4884;42.614;23.340;2024-02-04T06:24:26;93030.22;;;7.29;64.46
9690;BME280;4884;42.614;23.340;2024-02-04T06:26:51;92987.53;;;7.10;64.12
9690;BME280;4884;42.614;23.340;2024-02-04T06:29:16;93041.69;;;7.23;64.96
9690;BME280;4884;42.614;23.340;2024-02-04T06:31:46;92996.66;;;7.29;63.48
9690;BME280;4884;42.614;23.340;2024-02-04T06:34:12;92976.91;;;7.11;63.02
9690;BME280;4884;42.614;23.340;2024-02-04T06:36:37;92986.28;;;7.51;60.43
9690;BME280;4884;42.614;23.340;2024-02-04T06:39:02;92853.72;;;6.72;59.16
9690;BME280;4884;42.614;23.340;2024-02-04T06:41:28;92888.06;;;7.04;59.21
9690;BME280;4884;42.614;23.340;2024-02-04T06:43:54;92929.94;;;7.01;59.23
9690;BME280;4884;42.614;23.340;2024-02-04T06:46:28;93027.16;;;7.72;59.56
9690;BME280;4884;42.614;23.340;2024-02-04T06:48:54;93016.22;;;7.75;58.56
9690;BME280;4884;42.614;23.340;2024-02-04T06:51:20;93028.69;;;7.73;58.09
9690;BME280;4884;42.614;23.340;2024-02-04T06:53:45;93033.22;;;7.98;57.08
9690;BME280;4884;42.614;23.340;2024-02-04T06:56:11;92968.84;;;7.79;56.57
9690;BME280;4884;42.614;23.340;2024-02-04T06:58:40;93008.41;;;7.88;56.71
9690;BME280;4884;42.614;23.340;2024-02-04T07:01:05;93025.81;;;8.05;57.15
9690;BME280;4884;42.614;23.340;2024-02-04T07:03:31;93050.84;;;7.96;58.13
9690;BME280;4884;42.614;23.340;2024-02-04T07:05:58;93016.72;;;8.07;55.91
9690;BME280;4884;42.614;23.340;2024-02-04T07:08:23;93036.16;;;8.05;55.96
9690;BME280;4884;42.614;23.340;2024-02-04T07:10:49;93045.41;;;8.28;55.55
9690;BME280;4884;42.614;23.340;2024-02-04T07:13:14;93051.66;;;8.27;55.56
9690;BME280;4884;42.614;23.340;2024-02-04T07:15:40;92966.44;;;7.61;56.29
9690;BME280;4884;42.614;23.340;2024-02-04T07:18:05;93063.16;;;8.21;55.89
9690;BME280;4884;42.614;23.340;2024-02-04T07:20:31;93014.16;;;8.16;55.46
9690;BME280;4884;42.614;23.340;2024-02-04T07:22:56;92898.88;;;7.36;55.87
9690;BME280;4884;42.614;23.340;2024-02-04T07:25:22;93057.88;;;8.26;56.35
9690;BME280;4884;42.614;23.340;2024-02-04T07:27:48;92997.84;;;8.07;55.38
9690;BME280;4884;42.614;23.340;2024-02-04T07:30:14;93034.09;;;8.24;54.28
9690;BME280;4884;42.614;23.340;2024-02-04T07:32:39;93009.13;;;8.50;52.28
9690;BME280;4884;42.614;23.340;2024-02-04T07:35:05;93019.66;;;8.54;53.29
9690;BME280;4884;42.614;23.340;2024-02-04T07:37:31;93053.19;;;8.76;51.74
9690;BME280;4884;42.614;23.340;2024-02-04T07:39:56;92948.69;;;8.29;51.08
9690;BME280;4884;42.614;23.340;2024-02-04T07:42:22;92890.97;;;8.03;50.04
9690;BME280;4884;42.614;23.340;2024-02-04T07:44:47;92927.78;;;8.17;51.29
9690;BME280;4884;42.614;23.340;2024-02-04T07:47:13;92805.75;;;7.24;51.34
9690;BME280;4884;42.614;23.340;2024-02-04T07:49:38;93044.66;;;8.75;51.06
9690;BME280;4884;42.614;23.340;2024-02-04T07:52:04;93008.66;;;8.48;51.62
9690;BME280;4884;42.614;23.340;2024-02-04T07:54:29;93070.84;;;8.82;50.32
9690;BME280;4884;42.614;23.340;2024-02-04T07:56:55;93057.78;;;8.87;49.99
9690;BME280;4884;42.614;23.340;2024-02-04T07:59:20;93061.16;;;10.16;45.82
9690;BME280;4884;42.614;23.340;2024-02-04T08:01:46;92936.44;;;9.92;44.94
9690;BME280;4884;42.614;23.340;2024-02-04T08:04:12;93040.81;;;10.73;44.18
9690;BME280;4884;42.614;23.340;2024-02-04T08:06:37;93072.47;;;10.58;43.41
9690;BME280;4884;42.614;23.340;2024-02-04T08:09:03;93059.94;;;10.60;44.21
9690;BME280;4884;42.614;23.340;2024-02-04T08:11:29;92946.88;;;9.75;43.73
9690;BME280;4884;42.614;23.340;2024-02-04T08:13:54;92907.88;;;10.01;43.87
9690;BME280;4884;42.614;23.340;2024-02-04T08:16:20;93062.00;;;11.54;43.16
9690;BME280;4884;42.614;23.340;2024-02-04T08:18:46;93027.66;;;11.49;43.69
9690;BME280;4884;42.614;23.340;2024-02-04T08:21:11;93039.16;;;11.68;42.36
9690;BME280;4884;42.614;23.340;2024-02-04T08:23:37;93026.84;;;12.34;40.97
9690;BME280;4884;42.614;23.340;2024-02-04T08:26:02;92926.19;;;12.74;38.60
9690;BME280;4884;42.614;23.340;2024-02-04T08:28:28;93042.84;;;12.81;40.25
9690;BME280;4884;42.614;23.340;2024-02-04T08:30:54;92946.50;;;11.64;41.31
9690;BME280;4884;42.614;23.340;2024-02-04T08:33:20;93062.75;;;12.41;41.99
9690;BME280;4884;42.614;23.340;2024-02-04T08:35:45;93037.63;;;12.45;42.00
9690;BME280;4884;42.614;23.340;2024-02-04T08:38:10;93053.00;;;12.50;41.48
9690;BME280;4884;42.614;23.340;2024-02-04T08:40:36;93052.44;;;11.46;44.07
9690;BME280;4884;42.614;23.340;2024-02-04T08:43:01;93050.44;;;11.02;46.15
9690;BME280;4884;42.614;23.340;2024-02-04T08:45:26;92834.97;;;9.35;47.83
9690;BME280;4884;42.614;23.340;2024-02-04T08:47:52;93044.97;;;10.28;50.00
9690;BME280;4884;42.614;23.340;2024-02-04T08:50:17;93027.38;;;10.33;50.53
9690;BME280;4884;42.614;23.340;2024-02-04T08:52:43;93057.34;;;10.05;51.12
9690;BME280;4884;42.614;23.340;2024-02-04T08:55:08;93048.81;;;9.88;51.95
9690;BME280;4884;42.614;23.340;2024-02-04T08:57:34;93033.00;;;9.89;52.27
9690;BME280;4884;42.614;23.340;2024-02-04T08:59:59;92914.97;;;9.02;52.87
9690;BME280;4884;42.614;23.340;2024-02-04T09:02:25;93045.66;;;9.65;53.45
9690;BME280;4884;42.614;23.340;2024-02-04T09:04:50;92931.72;;;8.96;54.01
9690;BME280;4884;42.614;23.340;2024-02-04T09:07:15;92987.47;;;9.11;53.93
9690;BME280;4884;42.614;23.340;2024-02-04T09:09:41;93044.59;;;9.23;56.07
9690;BME280;4884;42.614;23.340;2024-02-04T09:12:08;93040.78;;;9.38;55.44
9690;BME280;4884;42.614;23.340;2024-02-04T09:14:34;93050.69;;;9.36;56.08
9690;BME280;4884;42.614;23.340;2024-02-04T09:17:05;93057.56;;;9.32;55.73
9690;BME280;4884;42.614;23.340;2024-02-04T09:19:32;92930.19;;;8.61;55.31
9690;BME280;4884;42.614;23.340;2024-02-04T09:21:57;92937.50;;;8.59;55.55
9690;BME280;4884;42.614;23.340;2024-02-04T09:24:22;93010.91;;;8.97;56.43
9690;BME280;4884;42.614;23.340;2024-02-04T09:26:48;93028.59;;;9.30;55.28
9690;BME280;4884;42.614;23.340;2024-02-04T09:29:14;92921.19;;;8.50;55.37
9690;BME280;4884;42.614;23.340;2024-02-04T09:31:39;93010.63;;;9.25;55.00
9690;BME280;4884;42.614;23.340;2024-02-04T09:34:05;93068.22;;;9.47;55.06
9690;BME280;4884;42.614;23.340;2024-02-04T09:36:30;92942.53;;;9.24;52.48
9690;BME280;4884;42.614;23.340;2024-02-04T09:38:55;93065.13;;;10.98;50.76
9690;BME280;4884;42.614;23.340;2024-02-04T09:41:21;92950.00;;;10.35;50.53
9690;BME280;4884;42.614;23.340;2024-02-04T09:43:50;92950.56;;;11.85;46.34
9690;BME280;4884;42.614;23.340;2024-02-04T09:46:17;93046.25;;;13.06;44.36
9690;BME280;4884;42.614;23.340;2024-02-04T09:48:44;92938.59;;;13.17;41.97
9690;BME280;4884;42.614;23.340;2024-02-04T09:51:10;93026.34;;;12.65;44.21
9690;BME280;4884;42.614;23.340;2024-02-04T09:53:36;93022.03;;;12.00;45.99
9690;BME280;4884;42.614;23.340;2024-02-04T09:56:06;92948.31;;;10.69;48.42
9690;BME280;4884;42.614;23.340;2024-02-04T09:58:33;93030.03;;;12.40;44.46
9690;BME280;4884;42.614;23.340;2024-02-04T10:01:00;93034.16;;;13.93;41.77
9690;BME280;4884;42.614;23.340;2024-02-04T10:03:25;93040.44;;;14.47;40.14
9690;BME280;4884;42.614;23.340;2024-02-04T10:05:51;93033.91;;;13.98;41.04
9690;BME280;4884;42.614;23.340;2024-02-04T10:08:16;92930.75;;;13.29;40.99
9690;BME280;4884;42.614;23.340;2024-02-04T10:10:42;92938.75;;;12.85;42.64
9690;BME280;4884;42.614;23.340;2024-02-04T10:13:10;92968.31;;;13.28;41.47
9690;BME280;4884;42.614;23.340;2024-02-04T10:15:36;93057.28;;;14.06;41.29
9690;BME280;4884;42.614;23.340;2024-02-04T10:18:05;93040.09;;;14.64;39.93
9690;BME280;4884;42.614;23.340;2024-02-04T10:20:32;93083.03;;;15.14;39.79
9690;BME280;4884;42.614;23.340;2024-02-04T10:22:57;93076.47;;;14.57;39.71
9690;BME280;4884;42.614;23.340;2024-02-04T10:25:23;93070.44;;;13.70;42.27
9690;BME280;4884;42.614;23.340;2024-02-04T10:27:48;92968.06;;;12.94;42.39
9690;BME280;4884;42.614;23.340;2024-02-04T10:30:14;93075.56;;;14.22;42.09
9690;BME280;4884;42.614;23.340;2024-02-04T10:32:41;93064.28;;;14.18;42.25
9690;BME280;4884;42.614;23.340;2024-02-04T10:35:07;93071.78;;;14.19;41.76
9690;BME280;4884;42.614;23.340;2024-02-04T10:37:34;92930.22;;;12.84;42.63
9690;BME280;4884;42.614;23.340;2024-02-04T10:39:59;92932.63;;;12.29;44.36
9690;BME280;4884;42.614;23.340;2024-02-04T10:42:27;93049.09;;;12.56;45.59
9690;BME280;4884;42.614;23.340;2024-02-04T10:44:57;92920.78;;;10.97;47.83
9690;BME280;4884;42.614;23.340;2024-02-04T10:47:25;93004.72;;;11.51;48.70
9690;BME280;4884;42.614;23.340;2024-02-04T10:49:58;93058.78;;;11.37;49.26
9690;BME280;4884;42.614;23.340;2024-02-04T10:52:26;93062.63;;;11.51;48.91
9690;BME280;4884;42.614;23.340;2024-02-04T10:54:53;93048.06;;;11.17;49.89
9690;BME280;4884;42.614;23.340;2024-02-04T10:57:21;93028.31;;;10.67;51.04
9690;BME280;4884;42.614;23.340;2024-02-04T10:59:48;93051.41;;;10.89;51.24
9690;BME280;4884;42.614;23.340;2024-02-04T11:02:15;92927.41;;;9.52;51.45
9690;BME280;4884;42.614;23.340;2024-02-04T11:04:42;93057.03;;;10.24;53.89
9690;BME280;4884;42.614;23.340;2024-02-04T11:07:09;93018.81;;;9.78;53.58
9690;BME280;4884;42.614;23.340;2024-02-04T11:09:36;93021.72;;;9.68;54.50
9690;BME280;4884;42.614;23.340;2024-02-04T11:12:04;93039.97;;;10.06;54.02
9690;BME280;4884;42.614;23.340;2024-02-04T11:14:31;93015.75;;;9.93;52.78
9690;BME280;4884;42.614;23.340;2024-02-04T11:25:52;92980.16;;;13.38;43.41
9690;BME280;4884;42.614;23.340;2024-02-04T11:28:19;93011.13;;;13.15;44.62
9690;BME280;4884;42.614;23.340;2024-02-04T11:30:47;92997.03;;;12.80;46.14
9690;BME280;4884;42.614;23.340;2024-02-04T11:33:13;92934.78;;;12.39;46.13
9690;BME280;4884;42.614;23.340;2024-02-04T11:35:42;93013.94;;;12.26;46.81
9690;BME280;4884;42.614;23.340;2024-02-04T11:38:08;93026.50;;;12.12;47.73
9690;BME280;4884;42.614;23.340;2024-02-04T11:40:35;92948.56;;;11.38;47.88
9690;BME280;4884;42.614;23.340;2024-02-04T11:43:10;93021.13;;;13.01;45.80
9690;BME280;4884;42.614;23.340;2024-02-04T11:45:39;93027.88;;;13.14;44.83
9690;BME280;4884;42.614;23.340;2024-02-04T11:48:09;92994.13;;;12.82;45.14
9690;BME280;4884;42.614;23.340;2024-02-04T11:50:35;92915.38;;;12.24;45.73
9690;BME280;4884;42.614;23.340;2024-02-04T11:53:11;93005.81;;;13.64;43.05
9690;BME280;4884;42.614;23.340;2024-02-04T11:55:40;92989.78;;;13.49;43.08
9690;BME280;4884;42.614;23.340;2024-02-04T11:58:06;92867.88;;;12.91;42.61
9690;BME280;4884;42.614;23.340;2024-02-04T12:00:33;92861.53;;;13.04;42.88
9690;BME280;4884;42.614;23.340;2024-02-04T12:03:03;92827.53;;;13.40;41.40
9690;BME280;4884;42.614;23.340;2024-02-04T12:05:31;92944.78;;;14.27;40.38
9690;BME280;4884;42.614;23.340;2024-02-04T12:08:00;92937.09;;;15.35;38.24
9690;BME280;4884;42.614;23.340;2024-02-04T12:10:26;92846.91;;;14.02;39.18
9690;BME280;4884;42.614;23.340;2024-02-04T12:12:52;92846.31;;;12.78;39.03
9690;BME280;4884;42.614;23.340;2024-02-04T12:15:17;92997.59;;;12.61;41.50
9690;BME280;4884;42.614;23.340;2024-02-04T12:17:43;92972.00;;;13.83;39.62
9690;BME280;4884;42.614;23.340;2024-02-04T12:20:09;92960.94;;;12.54;41.61
9690;BME280;4884;42.614;23.340;2024-02-04T12:22:35;93006.84;;;11.69;44.83
9690;BME280;4884;42.614;23.340;2024-02-04T12:25:02;92976.53;;;11.20;45.99
9690;BME280;4884;42.614;23.340;2024-02-04T12:27:28;92950.66;;;11.77;44.19
9690;BME280;4884;42.614;23.340;2024-02-04T12:29:54;92858.34;;;11.38;44.28
9690;BME280;4884;42.614;23.340;2024-02-04T12:32:19;92990.50;;;11.27;46.97
9690;BME280;4884;42.614;23.340;2024-02-04T12:34:48;92965.34;;;10.99;47.59
9690;BME280;4884;42.614;23.340;2024-02-04T12:37:14;92863.59;;;10.64;46.69
9690;BME280;4884;42.614;23.340;2024-02-04T12:39:39;92965.66;;;12.04;44.70
9690;BME280;4884;42.614;23.340;2024-02-04T12:42:05;92859.13;;;11.06;45.02
9690;BME280;4884;42.614;23.340;2024-02-04T12:44:31;92964.66;;;11.31;46.00
9690;BME280;4884;42.614;23.340;2024-02-04T12:46:57;92972.38;;;10.48;48.33
9690;BME280;4884;42.614;23.340;2024-02-04T12:49:22;92975.88;;;10.52;48.15
9690;BME280;4884;42.614;23.340;2024-02-04T12:51:48;92985.72;;;10.38;48.76
9690;BME280;4884;42.614;23.340;2024-02-04T12:54:14;92826.88;;;9.45;47.74
9690;BME280;4884;42.614;23.340;2024-02-04T12:59:09;92938.03;;;10.51;48.77
9690;BME280;4884;42.614;23.340;2024-02-04T13:01:36;92955.47;;;10.42;49.22
9690;BME280;4884;42.614;23.340;2024-02-04T13:04:01;92856.31;;;9.70;48.65
9690;BME280;4884;42.614;23.340;2024-02-04T13:06:27;92944.56;;;10.28;48.61
9690;BME280;4884;42.614;23.340;2024-02-04T13:08:55;92851.66;;;9.55;48.88
9690;BME280;4884;42.614;23.340;2024-02-04T13:11:25;92998.44;;;10.23;50.32
9690;BME280;4884;42.614;23.340;2024-02-04T13:13:50;92855.41;;;9.20;50.67
9690;BME280;4884;42.614;23.340;2024-02-04T13:16:16;92864.72;;;9.21;51.33
9690;BME280;4884;42.614;23.340;2024-02-04T13:18:43;92821.66;;;8.99;50.02
9690;BME280;4884;42.614;23.340;2024-02-04T13:21:09;92980.97;;;9.94;49.74
9690;BME280;4884;42.614;23.340;2024-02-04T13:23:34;92849.78;;;9.18;48.87
9690;BME280;4884;42.614;23.340;2024-02-04T13:26:00;92855.19;;;9.42;49.54